KMOX/MOX METAR and TAF weather

Enter ICAO airport designator
Station Type Date Time Source
KMOX METAR 2020/10/20 17:06 UTC NOAA

KMOX 201706Z AUTO 13017KT 1/4SM SN OVC001 M02/M02 A3009 RMK AO2 TSNO


Station Type Date Time Source
KMOX Decoded METAR 2020/10/20 17:06 UTC NOAA

Morris, Morris Municipal Airport, MN, United States (KMOX) 45-34N 095-58W
Oct 20, 2020 - 01:06 PM EDT / 2020.10.20 1706 UTC
Wind: from the SE (130 degrees) at 20 MPH (17 KT):0
Visibility: 1/4 mile(s):0
Sky conditions: overcast
Weather: snow
Temperature: 28 F (-2 C)
Windchill: 14 F (-10 C):1
Dew Point: 28 F (-2 C)
Relative Humidity: 100%
Pressure (altimeter): 30.09 in. Hg (1018 hPa)
ob: KMOX 201706Z AUTO 13017KT 1/4SM SN OVC001 M02/M02 A3009 RMK AO2 TSNO
cycle: 17

Station Type Date Time Source
KMOX TAF UTC NOAA

Error!

Example: see airport list